Time;durP1;ratioP1;P1;durP2;ratioP2;P2;SDS_P1;SDS_P2;PMS_P1;PMS_P2;Temp;Humidity;BMP_temperature;BMP_pressure;BME280_temperature;BME280_humidity;BME280_pressure;Samples;Min_cycle;Max_cycle;Signal;HPM_P1;HPM_P2
2023/04/07 00:00:51;;;;;;;20.00;12.18;;;;;;;10.55;68.67;101379.56;5117625;28;20043;-69
2023/04/07 00:03:19;;;;;;;20.02;10.88;;;;;;;10.54;69.16;101386.78;5120831;28;20517;-69
2023/04/07 00:05:47;;;;;;;21.90;10.73;;;;;;;10.54;68.95;101385.97;5119894;28;20036;-68
2023/04/07 00:08:15;;;;;;;20.23;11.60;;;;;;;10.53;69.18;101390.53;5117345;28;20040;-68
2023/04/07 00:10:43;;;;;;;18.13;10.60;;;;;;;10.53;68.78;101395.91;5120252;28;20043;-68
2023/04/07 00:13:10;;;;;;;17.52;11.20;;;;;;;10.53;68.93;101392.38;5118023;28;20058;-68
2023/04/07 00:15:40;;;;;;;21.05;11.50;;;;;;;10.53;68.37;101403.13;5116329;28;20059;-69
2023/04/07 00:18:07;;;;;;;21.48;12.10;;;;;;;10.53;68.65;101403.97;5119065;28;20048;-69
2023/04/07 00:20:35;;;;;;;19.27;11.70;;;;;;;10.54;69.01;101407.47;5117310;28;20083;-69
2023/04/07 00:23:03;;;;;;;19.92;11.55;;;;;;;10.53;69.25;101397.75;5120098;28;20108;-69
2023/04/07 00:25:31;;;;;;;23.23;11.88;;;;;;;10.52;69.50;101393.41;5120834;28;20201;-70
2023/04/07 00:27:58;;;;;;;19.85;11.68;;;;;;;10.49;69.42;101393.81;5115039;28;20455;-68
2023/04/07 00:30:26;;;;;;;23.33;12.02;;;;;;;10.50;68.70;101404.38;5119351;28;20097;-69
2023/04/07 00:32:55;;;;;;;19.83;11.95;;;;;;;10.50;69.37;101400.84;5114769;28;20047;-68
2023/04/07 00:35:23;;;;;;;17.67;10.77;;;;;;;10.48;69.07;101401.06;5117347;28;20044;-69
2023/04/07 00:37:51;;;;;;;22.50;11.93;;;;;;;10.49;69.38;101404.59;5116856;28;20044;-70
2023/04/07 00:40:19;;;;;;;19.40;10.18;;;;;;;10.47;68.62;101404.78;5118348;28;20081;-68
2023/04/07 00:42:46;;;;;;;18.55;11.18;;;;;;;10.49;69.04;101399.19;5118131;28;20050;-69
2023/04/07 00:45:14;;;;;;;15.20;9.75;;;;;;;10.47;68.38;101406.66;5117636;28;20047;-69
2023/04/07 00:47:42;;;;;;;13.60;9.48;;;;;;;10.48;68.60;101400.25;5116432;28;20515;-69
2023/04/07 00:50:12;;;;;;;17.60;9.63;;;;;;;10.45;68.69;101404.16;5116937;28;20043;-68
2023/04/07 00:52:40;;;;;;;17.88;10.25;;;;;;;10.42;68.40;101397.34;5120037;28;20059;-69
2023/04/07 00:55:09;;;;;;;15.27;9.30;;;;;;;10.44;68.51;101402.50;5109109;28;20055;-69
2023/04/07 00:57:36;;;;;;;16.60;10.27;;;;;;;10.43;68.30;101395.47;5119930;28;20042;-69
2023/04/07 01:00:06;;;;;;;24.50;11.48;;;;;;;10.42;68.58;101408.09;5116264;28;20363;-69
2023/04/07 01:02:40;;;;;;;18.83;10.43;;;;;;;10.41;68.26;101401.06;5109246;28;20047;-68
2023/04/07 01:05:18;;;;;;;18.13;9.43;;;;;;;10.41;68.21;101397.56;5121864;28;20051;-66
2023/04/07 01:07:55;;;;;;;14.95;9.88;;;;;;;10.40;68.00;101395.94;5122720;28;20083;-68
2023/04/07 01:10:28;;;;;;;15.20;9.50;;;;;;;10.40;68.76;101402.09;5123299;28;20046;-69
2023/04/07 01:13:03;;;;;;;19.85;10.68;;;;;;;10.38;68.13;101404.19;5121472;28;20054;-68
2023/04/07 01:15:33;;;;;;;19.42;10.43;;;;;;;10.39;67.75;101405.84;5116811;28;20067;-69
2023/04/07 01:18:10;;;;;;;18.67;9.27;;;;;;;10.39;67.70;101410.41;5118864;28;20091;-69
2023/04/07 01:20:40;;;;;;;15.45;9.23;;;;;;;10.40;67.32;101409.38;5119153;28;20520;-68
2023/04/07 01:23:08;;;;;;;17.85;10.65;;;;;;;10.40;67.43;101415.53;5118066;28;20051;-68
2023/04/07 01:25:54;;;;;;;15.88;9.63;;;;;;;10.40;67.59;101414.75;5124133;28;20050;-69
2023/04/07 01:28:41;;;;;;;14.57;9.48;;;;;;;10.37;67.39;101413.28;5106720;28;20054;-68
2023/04/07 01:31:12;;;;;;;14.45;9.30;;;;;;;10.37;67.32;101421.34;5121939;28;20061;-69
2023/04/07 01:33:45;;;;;;;13.48;8.93;;;;;;;10.38;67.26;101428.38;5120909;28;20040;-68
2023/04/07 01:36:13;;;;;;;16.33;9.73;;;;;;;10.37;67.49;101429.41;5123752;28;20219;-70
2023/04/07 01:38:43;;;;;;;16.52;8.82;;;;;;;10.34;67.71;101421.75;5122395;28;20040;-69
2023/04/07 01:41:13;;;;;;;17.40;10.30;;;;;;;10.35;67.56;101423.41;5117061;28;20064;-69
2023/04/07 01:43:41;;;;;;;17.58;9.48;;;;;;;10.33;67.81;101422.81;5117119;28;20040;-69
2023/04/07 01:46:13;;;;;;;17.92;9.55;;;;;;;10.33;68.32;101425.50;5124325;28;20056;-69
2023/04/07 01:48:42;;;;;;;15.15;9.45;;;;;;;10.30;68.21;101415.16;5118870;28;20062;-69
2023/04/07 01:51:16;;;;;;;15.30;8.90;;;;;;;10.30;68.56;101425.91;5122368;28;20751;-70
2023/04/07 01:53:44;;;;;;;15.38;9.60;;;;;;;10.30;68.13;101427.75;5122798;28;20109;-69
2023/04/07 01:56:12;;;;;;;15.85;9.25;;;;;;;10.29;68.54;101418.88;5123242;28;20071;-66
2023/04/07 01:58:40;;;;;;;15.60;9.30;;;;;;;10.30;68.16;101433.13;5118674;28;20107;-69
2023/04/07 02:01:07;;;;;;;15.80;9.75;;;;;;;10.30;68.83;101428.59;5118046;28;20054;-69
2023/04/07 02:03:43;;;;;;;14.18;8.38;;;;;;;10.26;68.61;101419.28;5120115;28;20512;-69
2023/04/07 02:06:16;;;;;;;20.50;9.63;;;;;;;10.28;68.72;101422.59;5120442;28;20075;-69
2023/04/07 02:08:49;;;;;;;14.80;9.88;;;;;;;10.29;68.73;101424.25;5112784;28;20123;-69
2023/04/07 02:11:20;;;;;;;13.77;8.32;;;;;;;10.28;68.90;101417.22;5118790;28;20071;-69
2023/04/07 02:13:51;;;;;;;16.63;9.30;;;;;;;10.27;68.65;101420.94;5120809;28;20103;-69
2023/04/07 02:16:20;;;;;;;13.95;8.98;;;;;;;10.28;69.06;101424.44;5116641;28;20315;-69
2023/04/07 02:18:50;;;;;;;17.65;10.07;;;;;;;10.27;69.03;101422.78;5116934;28;20035;-69
2023/04/07 02:21:20;;;;;;;18.50;10.35;;;;;;;10.26;68.96;101419.28;5120515;28;20052;-70
2023/04/07 02:23:48;;;;;;;16.75;9.80;;;;;;;10.28;68.83;101427.13;5120424;28;20052;-69
2023/04/07 02:26:15;;;;;;;20.15;10.30;;;;;;;10.25;68.86;101423.00;5120455;28;20143;-69
2023/04/07 02:28:43;;;;;;;17.75;10.25;;;;;;;10.24;68.97;101432.09;5121537;28;20071;-69
2023/04/07 02:31:12;;;;;;;16.52;9.55;;;;;;;10.23;68.95;101422.38;5118906;28;20085;-69
2023/04/07 02:33:40;;;;;;;14.68;8.75;;;;;;;10.23;68.71;101427.75;5118102;28;20183;-68
2023/04/07 02:36:09;;;;;;;20.02;9.45;;;;;;;10.22;69.14;101428.78;5118291;28;20051;-69
2023/04/07 02:38:37;;;;;;;19.05;10.00;;;;;;;10.21;69.09;101423.63;5120673;28;20044;-69
2023/04/07 02:41:05;;;;;;;20.52;9.93;;;;;;;10.19;69.54;101431.84;5115459;28;20070;-68
2023/04/07 02:43:33;;;;;;;22.17;9.60;;;;;;;10.19;68.91;101434.53;5119458;28;20082;-68
2023/04/07 02:46:01;;;;;;;16.40;9.50;;;;;;;10.18;68.79;101437.44;5116934;28;20154;-69
2023/04/07 02:48:28;;;;;;;16.83;8.90;;;;;;;10.19;68.66;101439.91;5121467;28;20426;-68
2023/04/07 02:50:56;;;;;;;15.52;9.63;;;;;;;10.19;68.71;101441.75;5120207;28;20044;-69
2023/04/07 02:53:25;;;;;;;16.55;8.77;;;;;;;10.19;68.45;101447.97;5116173;28;20127;-69
2023/04/07 02:55:53;;;;;;;17.02;9.02;;;;;;;10.18;68.33;101440.94;5118388;28;20554;-69
2023/04/07 02:58:21;;;;;;;16.55;8.68;;;;;;;10.19;68.28;101441.75;5118993;28;20535;-69
2023/04/07 03:00:49;;;;;;;16.48;10.48;;;;;;;10.19;68.55;101450.66;5116824;28;20066;-69
2023/04/07 03:03:17;;;;;;;12.98;8.95;;;;;;;10.17;68.44;101436.59;5121383;28;20048;-68
2023/04/07 03:05:45;;;;;;;16.23;9.68;;;;;;;10.17;67.90;101439.28;5118096;28;20044;-69
2023/04/07 03:08:13;;;;;;;11.88;8.40;;;;;;;10.18;68.12;101443.63;5118006;28;20063;-67
2023/04/07 03:10:42;;;;;;;16.88;7.95;;;;;;;10.20;68.16;101438.06;5116571;28;20130;-69
2023/04/07 03:13:11;;;;;;;13.48;7.30;;;;;;;10.08;68.04;101424.41;5118497;28;20247;-69
2023/04/07 03:15:39;;;;;;;14.65;8.27;;;;;;;10.18;68.08;101445.47;5116415;28;20075;-70
2023/04/07 03:18:07;;;;;;;12.35;8.15;;;;;;;10.16;68.40;101437.63;5121907;28;20075;-69
2023/04/07 03:20:35;;;;;;;15.15;7.30;;;;;;;10.17;68.36;101441.13;5121410;28;20039;-69
2023/04/07 03:23:03;;;;;;;12.23;7.18;;;;;;;10.13;68.22;101434.53;5115657;27;20526;-68
2023/04/07 03:25:31;;;;;;;17.25;8.27;;;;;;;10.15;68.28;101438.66;5118839;28;20048;-69
2023/04/07 03:28:00;;;;;;;14.40;8.20;;;;;;;10.14;68.65;101430.81;5121248;28;20078;-69
2023/04/07 03:30:28;;;;;;;16.60;8.75;;;;;;;10.14;68.01;101433.50;5119155;28;20049;-70
2023/04/07 03:32:56;;;;;;;17.00;8.05;;;;;;;10.13;68.28;101434.53;5121910;28;20052;-70
2023/04/07 03:35:23;;;;;;;15.27;8.30;;;;;;;10.03;68.25;101421.50;5118983;28;20043;-70
2023/04/07 03:37:51;;;;;;;15.82;7.95;;;;;;;10.11;68.36;101432.03;5117089;28;20058;-70
2023/04/07 03:40:19;;;;;;;13.93;8.02;;;;;;;10.10;68.42;101425.84;5109094;28;20095;-70
2023/04/07 03:42:48;;;;;;;12.55;7.72;;;;;;;10.10;68.56;101430.38;5114255;28;20046;-70
2023/04/07 03:45:17;;;;;;;13.23;8.25;;;;;;;10.09;68.68;101426.03;5119327;28;20078;-69
2023/04/07 03:47:45;;;;;;;17.63;7.55;;;;;;;10.10;68.31;101427.69;5120676;28;20069;-69
2023/04/07 03:50:12;;;;;;;16.20;8.48;;;;;;;10.10;68.27;101430.38;5117882;28;20055;-69
2023/04/07 03:52:40;;;;;;;16.40;8.57;;;;;;;10.10;68.89;101436.59;5119710;28;20043;-69
2023/04/07 03:55:09;;;;;;;17.92;9.68;;;;;;;10.07;68.66;101436.16;5118174;28;21721;-70
2023/04/07 03:57:36;;;;;;;20.05;9.48;;;;;;;10.08;68.34;101444.03;5119215;28;20134;-69
2023/04/07 04:00:06;;;;;;;14.35;9.02;;;;;;;10.06;68.50;101438.03;5114297;28;20040;-69
2023/04/07 04:02:35;;;;;;;15.10;8.13;;;;;;;10.07;68.85;101437.00;5122371;27;20063;-69
2023/04/07 04:05:03;;;;;;;19.65;9.30;;;;;;;10.07;68.67;101434.31;5117347;28;20073;-69
2023/04/07 04:07:32;;;;;;;14.52;8.30;;;;;;;10.06;68.55;101439.88;5115709;28;20464;-69
2023/04/07 04:10:00;;;;;;;17.40;8.65;;;;;;;10.06;69.17;101446.09;5116758;28;20040;-69
2023/04/07 04:12:28;;;;;;;12.70;8.65;;;;;;;10.04;68.44;101447.31;5114604;28;20051;-70
2023/04/07 04:14:56;;;;;;;22.48;9.80;;;;;;;10.03;68.88;101449.19;5116250;28;20059;-69
2023/04/07 04:17:25;;;;;;;16.65;8.52;;;;;;;10.04;68.75;101450.84;5116703;28;20064;-68
2023/04/07 04:19:55;;;;;;;18.48;9.93;;;;;;;10.05;68.39;101448.97;5115859;28;20681;-69
2023/04/07 04:22:22;;;;;;;16.73;8.82;;;;;;;10.04;68.21;101444.63;4757187;28;10000350;-68
2023/04/07 04:24:50;;;;;;;15.60;9.18;;;;;;;10.02;68.24;101449.38;5112836;28;20058;-68
2023/04/07 04:27:18;;;;;;;15.40;9.48;;;;;;;10.03;68.42;101453.72;5116926;28;20063;-69
2023/04/07 04:29:46;;;;;;;22.92;9.15;;;;;;;9.97;68.67;101450.00;5106702;28;20036;-69
2023/04/07 04:32:14;;;;;;;16.63;8.35;;;;;;;9.99;68.41;101455.97;5113468;28;20495;-69
2023/04/07 04:34:42;;;;;;;19.02;8.57;;;;;;;10.00;68.10;101448.75;5115710;28;20044;-69
2023/04/07 04:37:11;;;;;;;14.02;7.80;;;;;;;10.01;67.94;101455.78;5108228;28;20059;-69
2023/04/07 04:39:39;;;;;;;14.98;8.23;;;;;;;9.99;67.47;101449.78;5117681;28;21133;-70
2023/04/07 04:42:07;;;;;;;14.82;9.05;;;;;;;10.01;68.06;101459.28;5118445;28;20059;-69
2023/04/07 04:44:35;;;;;;;15.50;7.95;;;;;;;10.02;67.24;101465.50;5116654;28;20048;-69
2023/04/07 04:47:03;;;;;;;18.77;8.45;;;;;;;10.01;67.65;101455.78;5118329;28;20599;-69
2023/04/07 04:49:31;;;;;;;17.40;7.90;;;;;;;10.00;67.36;101465.69;5117474;28;20588;-69
2023/04/07 04:51:59;;;;;;;16.73;8.50;;;;;;;9.99;67.02;101463.22;5117491;28;20050;-69
2023/04/07 04:54:28;;;;;;;12.95;7.47;;;;;;;10.00;67.38;101462.19;5118272;28;20143;-69
2023/04/07 04:56:56;;;;;;;14.27;8.52;;;;;;;9.99;67.75;101474.78;5115624;28;20314;-69
2023/04/07 04:59:25;;;;;;;16.60;8.52;;;;;;;9.99;67.64;101465.91;5118040;28;20043;-69
2023/04/07 05:01:53;;;;;;;15.85;7.85;;;;;;;9.98;67.50;101474.97;5119346;28;20051;-68
2023/04/07 05:04:21;;;;;;;15.65;7.95;;;;;;;9.96;67.44;101480.56;5119026;28;20111;-69
2023/04/07 05:06:49;;;;;;;11.70;7.85;;;;;;;9.96;67.50;101483.25;5119090;28;20058;-69
2023/04/07 05:09:17;;;;;;;14.85;8.23;;;;;;;9.94;67.80;101487.97;5114914;28;20051;-68
2023/04/07 05:11:46;;;;;;;13.82;7.63;;;;;;;9.93;67.47;101486.31;5115872;28;20067;-69
2023/04/07 05:14:13;;;;;;;21.08;8.48;;;;;;;9.94;67.13;101485.31;5116893;28;20055;-69
2023/04/07 05:16:41;;;;;;;12.98;7.20;;;;;;;9.94;67.41;101490.66;5119960;28;20082;-68
2023/04/07 05:19:09;;;;;;;16.50;7.80;;;;;;;9.93;67.15;101491.69;5115449;28;20279;-69
2023/04/07 05:21:37;;;;;;;15.45;8.35;;;;;;;9.92;67.10;101492.72;5123689;27;20071;-69
2023/04/07 05:24:05;;;;;;;21.52;8.77;;;;;;;9.91;67.68;101492.94;5117687;28;20139;-67
2023/04/07 05:26:35;;;;;;;15.45;7.10;;;;;;;9.90;67.49;101500.16;5115071;28;20460;-67
2023/04/07 05:29:04;;;;;;;14.43;7.82;;;;;;;9.90;67.44;101502.84;5111922;28;20040;-70
2023/04/07 05:31:34;;;;;;;18.35;8.68;;;;;;;9.91;67.19;101506.34;5119688;28;20385;-69
2023/04/07 05:34:02;;;;;;;16.42;10.45;;;;;;;9.90;67.77;101508.22;5113396;28;20054;-68
2023/04/07 05:36:30;;;;;;;14.73;8.75;;;;;;;9.90;67.53;101507.38;5120562;28;20055;-69
2023/04/07 05:38:58;;;;;;;17.35;9.20;;;;;;;9.89;67.76;101506.56;5116139;28;20051;-69
2023/04/07 05:41:26;;;;;;;17.27;9.68;;;;;;;9.89;67.76;101511.09;5118574;28;20115;-68
2023/04/07 05:43:53;;;;;;;19.83;9.45;;;;;;;9.89;67.29;101516.47;5117314;28;20476;-69
2023/04/07 05:46:23;;;;;;;16.25;9.95;;;;;;;9.89;68.06;101514.59;5116735;28;20130;-69
2023/04/07 05:48:50;;;;;;;19.55;9.30;;;;;;;9.90;67.47;101510.06;5120239;28;20050;-69
2023/04/07 05:51:18;;;;;;;19.77;11.15;;;;;;;9.89;67.63;101511.91;5117622;28;20048;-69
2023/04/07 05:53:46;;;;;;;22.88;12.43;;;;;;;9.88;67.99;101512.94;5119086;28;20142;-70
2023/04/07 05:56:14;;;;;;;24.55;10.98;;;;;;;9.89;67.79;101516.47;5115322;28;20055;-69
2023/04/07 05:58:42;;;;;;;21.83;9.95;;;;;;;9.88;67.75;101518.31;5117781;28;20122;-71
2023/04/07 06:01:09;;;;;;;22.15;10.77;;;;;;;9.88;67.79;101520.19;5112299;28;20047;-70
2023/04/07 06:03:39;;;;;;;20.65;11.25;;;;;;;9.87;68.19;101519.34;5112699;28;20155;-70
2023/04/07 06:06:07;;;;;;;23.30;12.43;;;;;;;9.87;67.71;101521.22;5110762;28;20066;-69
2023/04/07 06:08:35;;;;;;;22.80;11.85;;;;;;;9.88;67.88;101525.56;5117757;28;20043;-68
2023/04/07 06:11:03;;;;;;;20.00;10.57;;;;;;;9.88;67.88;101528.22;5118723;28;20054;-69
2023/04/07 06:13:31;;;;;;;21.52;11.48;;;;;;;9.89;67.88;101537.94;5113793;28;20048;-68
2023/04/07 06:16:00;;;;;;;20.30;11.40;;;;;;;9.88;67.42;101539.81;5112735;28;20109;-67
2023/04/07 06:18:27;;;;;;;20.70;10.88;;;;;;;9.89;67.55;101535.25;5118882;28;20120;-70
2023/04/07 06:20:56;;;;;;;21.33;11.32;;;;;;;9.87;67.44;101540.81;5116720;28;20047;-68
2023/04/07 06:23:24;;;;;;;19.98;10.18;;;;;;;9.87;67.52;101534.63;5107572;28;20138;-68
2023/04/07 06:25:52;;;;;;;23.50;12.05;;;;;;;9.86;67.78;101541.84;5114874;28;20051;-69
2023/04/07 06:28:21;;;;;;;20.48;10.48;;;;;;;9.86;67.28;101539.16;5112407;28;20050;-68
2023/04/07 06:30:48;;;;;;;16.25;9.27;;;;;;;9.86;67.53;101535.66;5116198;28;20039;-68
2023/04/07 06:33:17;;;;;;;16.77;9.77;;;;;;;9.85;67.42;101540.19;5116402;28;20139;-68
2023/04/07 06:35:44;;;;;;;18.85;10.65;;;;;;;9.86;67.49;101549.09;5110620;28;20074;-70
2023/04/07 06:38:13;;;;;;;19.17;11.00;;;;;;;9.85;67.58;101550.94;5112009;28;20090;-66
2023/04/07 06:40:41;;;;;;;16.88;10.00;;;;;;;9.85;67.43;101542.88;5116419;28;20235;-67
2023/04/07 06:43:09;;;;;;;22.27;12.07;;;;;;;9.85;68.13;101550.09;5117689;28;20054;-68
2023/04/07 06:45:37;;;;;;;21.55;12.00;;;;;;;9.83;68.28;101557.53;5108030;28;20054;-66
2023/04/07 06:48:05;;;;;;;17.08;9.73;;;;;;;9.82;67.95;101550.50;5117595;28;20043;-68
2023/04/07 06:50:33;;;;;;;20.23;11.75;;;;;;;9.79;68.60;101555.25;5116389;28;20043;-68
2023/04/07 06:53:01;;;;;;;20.77;10.65;;;;;;;9.82;68.65;101558.56;5114324;28;20109;-67
2023/04/07 06:55:30;;;;;;;20.00;11.52;;;;;;;9.82;68.50;101551.34;5112165;28;20051;-67
2023/04/07 06:57:57;;;;;;;22.30;11.27;;;;;;;9.80;68.67;101561.44;5115568;28;20055;-66
2023/04/07 07:00:28;;;;;;;18.38;10.98;;;;;;;9.82;69.04;101563.94;5116927;28;20052;-61
2023/04/07 07:02:56;;;;;;;16.23;10.75;;;;;;;9.80;69.24;101566.81;5115957;28;20047;-65
2023/04/07 07:05:25;;;;;;;21.60;10.88;;;;;;;9.80;68.93;101561.44;5112149;28;20047;-65
2023/04/07 07:07:52;;;;;;;24.98;11.70;;;;;;;9.81;69.07;101573.00;5117256;28;20492;-65
2023/04/07 07:10:21;;;;;;;19.27;11.35;;;;;;;9.81;69.22;101567.66;5113593;28;20071;-65
2023/04/07 07:12:51;;;;;;;20.67;10.98;;;;;;;9.81;69.66;101570.31;5109727;28;20047;-65
2023/04/07 07:15:19;;;;;;;17.33;9.68;;;;;;;9.80;68.88;101572.19;5112509;28;20087;-66
2023/04/07 07:17:46;;;;;;;15.45;8.70;;;;;;;9.80;69.42;101580.25;5114010;28;20115;-65
2023/04/07 07:20:14;;;;;;;16.90;9.48;;;;;;;9.83;69.08;101579.00;5115062;28;20109;-67
2023/04/07 07:22:42;;;;;;;20.27;10.35;;;;;;;9.82;69.43;101580.03;5111398;28;20043;-66
2023/04/07 07:25:10;;;;;;;16.27;9.70;;;;;;;9.82;69.64;101580.03;5115966;28;20055;-66
2023/04/07 07:27:38;;;;;;;16.45;8.90;;;;;;;9.83;69.56;101585.22;5116806;28;20586;-65
2023/04/07 07:30:08;;;;;;;19.40;9.15;;;;;;;9.83;69.55;101587.06;5107216;28;20120;-65
2023/04/07 07:32:36;;;;;;;15.25;9.10;;;;;;;9.83;69.57;101585.22;5115630;28;20055;-66
2023/04/07 07:35:05;;;;;;;17.65;8.27;;;;;;;9.82;69.51;101588.91;5112264;28;20052;-67
2023/04/07 07:37:32;;;;;;;16.38;8.60;;;;;;;9.83;70.00;101595.13;5113142;28;20131;-65
2023/04/07 07:40:00;;;;;;;16.70;8.65;;;;;;;9.84;69.84;101591.41;5111775;28;20079;-63
2023/04/07 07:42:29;;;;;;;17.00;8.27;;;;;;;9.79;69.68;101598.19;5118574;28;20100;-61
2023/04/07 07:44:57;;;;;;;17.83;9.30;;;;;;;9.81;69.80;101600.69;5114439;28;20110;-61
2023/04/07 07:47:27;;;;;;;17.88;7.80;;;;;;;9.82;70.39;101598.84;5121000;28;20058;-60
2023/04/07 07:49:55;;;;;;;12.32;6.97;;;;;;;9.96;69.34;101600.56;5120935;28;20536;-61
2023/04/07 07:52:22;;;;;;;15.18;7.78;;;;;;;10.11;69.43;101610.13;5117727;28;20075;-60
2023/04/07 07:54:51;;;;;;;12.30;7.57;;;;;;;10.29;68.58;101611.47;5121295;28;20047;-61
2023/04/07 07:57:19;;;;;;;15.60;8.32;;;;;;;10.48;68.05;101615.22;5117431;28;20050;-60
2023/04/07 07:59:46;;;;;;;15.48;7.15;;;;;;;10.66;67.07;101612.78;5117944;28;20056;-61
2023/04/07 08:02:14;;;;;;;15.82;7.43;;;;;;;10.76;66.62;101614.06;5118845;28;20044;-60
2023/04/07 08:04:44;;;;;;;13.55;6.45;;;;;;;10.85;65.87;101613.88;5121417;28;20044;-60
2023/04/07 08:07:12;;;;;;;9.65;5.82;;;;;;;10.80;65.98;101616.34;5113957;28;20072;-60
2023/04/07 08:09:39;;;;;;;10.05;5.20;;;;;;;10.68;66.10;101616.94;5121030;28;20052;-61
2023/04/07 08:12:07;;;;;;;11.38;5.75;;;;;;;10.59;66.39;101620.00;5117364;28;20063;-61
2023/04/07 08:14:35;;;;;;;10.32;6.25;;;;;;;10.51;66.88;101625.56;5118127;28;20104;-61
2023/04/07 08:17:03;;;;;;;10.18;5.40;;;;;;;10.43;67.41;101616.66;5118024;28;20107;-61
2023/04/07 08:19:30;;;;;;;10.68;5.80;;;;;;;10.39;67.13;101636.94;5105284;28;20116;-61
2023/04/07 08:21:59;;;;;;;12.88;5.10;;;;;;;10.34;67.62;101631.34;5118208;28;20126;-61
2023/04/07 08:24:28;;;;;;;8.57;4.40;;;;;;;10.30;67.81;101635.44;5119964;28;20075;-61
2023/04/07 08:26:56;;;;;;;11.02;4.88;;;;;;;10.28;67.73;101639.38;5118658;28;20043;-61
2023/04/07 08:29:23;;;;;;;10.00;4.53;;;;;;;10.21;67.87;101635.81;5115486;28;20044;-62
2023/04/07 08:31:51;;;;;;;11.60;4.63;;;;;;;10.19;68.16;101644.06;5119037;28;20052;-61
2023/04/07 08:34:20;;;;;;;16.27;4.90;;;;;;;10.11;67.82;101620.03;5114038;28;20051;-60
2023/04/07 08:36:47;;;;;;;10.15;4.75;;;;;;;10.16;68.22;101644.44;5120429;28;20390;-61
2023/04/07 08:39:16;;;;;;;12.32;5.03;;;;;;;10.16;67.93;101641.75;5114949;28;20046;-61
2023/04/07 08:41:47;;;;;;;9.75;4.80;;;;;;;10.16;68.44;101649.00;5120006;28;20054;-61
2023/04/07 08:44:15;;;;;;;13.00;4.63;;;;;;;10.14;67.92;101651.88;5117540;28;20071;-61
2023/04/07 08:46:43;;;;;;;13.13;5.28;;;;;;;10.14;68.21;101643.00;5112801;28;20067;-60
2023/04/07 08:49:13;;;;;;;9.90;5.32;;;;;;;10.14;68.24;101651.06;5118364;28;20089;-62
2023/04/07 08:51:46;;;;;;;12.30;5.63;;;;;;;10.14;68.18;101651.06;5119724;28;20086;-63
2023/04/07 08:54:20;;;;;;;12.23;5.63;;;;;;;10.10;68.75;101651.44;5116841;28;20127;-61
2023/04/07 08:56:48;;;;;;;12.57;5.45;;;;;;;10.09;68.52;101657.84;5120354;28;20053;-62
2023/04/07 08:59:17;;;;;;;10.85;5.32;;;;;;;10.08;68.51;101661.56;5118281;28;20043;-62
2023/04/07 09:01:47;;;;;;;10.43;5.93;;;;;;;10.09;68.38;101659.72;5119765;28;20047;-62
2023/04/07 09:04:15;;;;;;;11.27;6.15;;;;;;;10.07;68.50;101665.28;5114752;28;20137;-62
2023/04/07 09:06:43;;;;;;;11.15;6.28;;;;;;;10.09;68.68;101665.06;5118081;28;20043;-61
2023/04/07 09:09:11;;;;;;;8.95;5.57;;;;;;;10.09;69.11;101673.97;5120547;28;20106;-61
2023/04/07 09:11:43;;;;;;;12.05;4.93;;;;;;;10.03;68.84;101668.56;5120130;28;20134;-62
2023/04/07 09:14:10;;;;;;;7.00;2.55;;;;;;;9.94;68.19;101677.78;5114661;28;20055;-62
2023/04/07 09:16:38;;;;;;;10.98;3.40;;;;;;;9.88;67.95;101668.66;5117626;28;20111;-62
2023/04/07 09:19:06;;;;;;;10.15;3.15;;;;;;;9.88;68.42;101673.22;5111954;28;20166;-60
2023/04/07 09:21:55;;;;;;;6.20;2.55;;;;;;;9.92;68.22;101685.22;5110566;28;20067;-60
2023/04/07 09:24:25;;;;;;;4.82;2.00;;;;;;;10.17;66.04;101672.97;5107654;28;20055;-58
2023/04/07 09:27:10;;;;;;;10.20;1.70;;;;;;;9.92;66.12;101677.16;5113260;28;20067;-64
2023/04/07 09:29:40;;;;;;;9.65;2.05;;;;;;;10.02;66.64;101675.78;4761627;28;10000251;-61
2023/04/07 09:32:08;;;;;;;9.38;2.25;;;;;;;10.26;65.62;101674.50;5114286;28;20050;-60
2023/04/07 09:34:37;;;;;;;7.40;1.88;;;;;;;10.50;65.06;101675.81;5116122;28;20512;-61
2023/04/07 09:37:08;;;;;;;11.23;2.05;;;;;;;10.80;64.11;101667.41;5118640;28;20052;-60
2023/04/07 09:39:50;;;;;;;6.25;1.83;;;;;;;11.02;63.27;101667.06;5119042;28;20075;-61
2023/04/07 09:42:19;;;;;;;3.45;1.52;;;;;;;11.23;62.68;101659.84;5114626;28;20066;-61
2023/04/07 09:44:47;;;;;;;6.53;2.83;;;;;;;11.43;62.27;101670.59;5122071;28;20074;-61
2023/04/07 09:47:15;;;;;;;5.15;1.60;;;;;;;11.55;61.26;101672.47;5117329;28;20050;-61
2023/04/07 09:49:51;;;;;;;4.95;1.48;;;;;;;11.69;60.93;101659.81;5117372;28;20052;-62
2023/04/07 09:52:20;;;;;;;3.97;2.10;;;;;;;11.74;60.40;101666.25;5115706;28;20356;-61
2023/04/07 09:54:49;;;;;;;8.07;2.42;;;;;;;11.77;60.39;101672.25;5123680;28;20130;-61
2023/04/07 09:57:20;;;;;;;8.52;2.53;;;;;;;11.86;60.28;101671.84;5122266;28;20111;-61
2023/04/07 09:59:48;;;;;;;6.55;1.67;;;;;;;11.93;59.81;101675.34;5116742;28;20333;-61
2023/04/07 10:02:17;;;;;;;9.05;1.90;;;;;;;11.97;59.97;101665.81;5119538;28;20074;-61
2023/04/07 10:04:45;;;;;;;11.13;2.83;;;;;;;12.04;59.67;101673.88;5117823;28;20047;-61
2023/04/07 10:07:13;;;;;;;5.38;1.90;;;;;;;12.07;59.94;101669.94;5120876;28;20066;-61
2023/04/07 10:09:41;;;;;;;5.57;1.98;;;;;;;12.09;59.62;101667.84;5115176;28;20047;-62
2023/04/07 10:12:09;;;;;;;5.28;1.80;;;;;;;12.00;59.91;101662.69;5117803;28;20101;-62
2023/04/07 10:14:38;;;;;;;6.18;1.58;;;;;;;11.86;60.40;101676.41;5112982;28;20977;-63
2023/04/07 10:17:11;;;;;;;10.65;1.88;;;;;;;11.69;61.02;101674.13;5119200;27;20068;-63
2023/04/07 10:19:39;;;;;;;7.20;2.20;;;;;;;11.54;61.54;101676.19;5110705;28;20402;-65
2023/04/07 10:22:07;;;;;;;11.77;2.25;;;;;;;11.37;61.97;101677.66;5098943;28;20067;-62
2023/04/07 10:24:51;;;;;;;8.55;2.08;;;;;;;11.20;62.42;101681.78;5113637;28;20043;-62
2023/04/07 10:27:22;;;;;;;7.03;2.97;;;;;;;11.07;62.69;101690.66;5107782;28;20331;-60
2023/04/07 10:29:52;;;;;;;9.52;2.47;;;;;;;10.98;63.17;101690.00;5113121;28;20114;-63
2023/04/07 10:32:20;;;;;;;7.82;2.13;;;;;;;10.90;63.49;101689.38;5114784;28;20116;-62
2023/04/07 10:35:01;;;;;;;8.40;2.35;;;;;;;10.85;64.14;101702.59;5106611;28;20075;-63
2023/04/07 10:37:28;;;;;;;8.32;2.53;;;;;;;10.81;64.44;101704.88;5119160;28;20085;-64
2023/04/07 10:40:27;;;;;;;9.93;2.60;;;;;;;10.76;64.82;101710.84;5116627;28;20075;-65
2023/04/07 10:42:56;;;;;;;6.60;2.20;;;;;;;10.72;65.17;101706.91;5114453;28;20043;-62
2023/04/07 10:45:58;;;;;;;14.82;2.95;;;;;;;10.67;65.39;101706.69;5115218;28;20439;-63
2023/04/07 10:48:32;;;;;;;6.68;2.13;;;;;;;10.56;65.63;101720.69;5113937;28;20055;-62
2023/04/07 10:51:16;;;;;;;8.90;2.70;;;;;;;10.49;65.79;101711.78;5112532;28;20048;-62
2023/04/07 10:54:19;;;;;;;8.63;2.22;;;;;;;10.37;65.95;101700.81;5112412;28;20044;-62
2023/04/07 10:57:13;;;;;;;9.43;3.13;;;;;;;10.40;65.92;101713.81;5112531;28;20047;-62
2023/04/07 11:00:03;;;;;;;8.88;2.20;;;;;;;10.39;66.25;101716.72;5110667;28;20055;-62
2023/04/07 11:02:36;;;;;;;8.70;2.88;;;;;;;10.36;66.77;101712.56;5109294;28;20397;-62
2023/04/07 11:05:04;;;;;;;8.90;2.75;;;;;;;10.38;66.48;101712.38;5102208;28;20083;-63
2023/04/07 11:07:46;;;;;;;5.53;2.08;;;;;;;10.37;66.96;101706.16;5089075;28;20052;-64
2023/04/07 11:10:15;;;;;;;8.35;2.88;;;;;;;10.34;66.88;101703.06;5107375;28;20048;-62
2023/04/07 11:12:43;;;;;;;5.65;2.22;;;;;;;10.36;66.65;101714.44;5114083;28;20502;-62
2023/04/07 11:15:18;;;;;;;7.60;3.20;;;;;;;10.36;65.92;101717.94;5114451;28;20126;-62
2023/04/07 11:17:47;;;;;;;10.93;2.60;;;;;;;10.36;65.63;101720.63;5113559;28;20593;-63
2023/04/07 11:20:15;;;;;;;9.23;2.78;;;;;;;10.33;66.03;101723.72;5117793;28;20343;-64
2023/04/07 11:22:59;;;;;;;12.02;3.03;;;;;;;10.32;65.94;101723.91;5116781;28;20583;-64
2023/04/07 11:25:29;;;;;;;11.82;3.40;;;;;;;10.31;66.28;101730.31;5111039;28;20043;-64
2023/04/07 11:27:57;;;;;;;13.15;2.28;;;;;;;10.29;65.92;101722.47;5117763;28;20040;-64
2023/04/07 11:30:25;;;;;;;13.07;2.90;;;;;;;10.29;65.93;101727.84;5116850;28;20054;-64